createdAt,value
2023-04-20T00:02:22.007Z,102166.63
2023-04-20T00:04:50.177Z,102160.63
2023-04-20T00:07:18.241Z,102160.84
2023-04-20T00:09:46.568Z,102154.72
2023-04-20T00:12:14.610Z,102152.75
2023-04-20T00:14:42.667Z,102141.69
2023-04-20T00:17:12.139Z,102137.53
2023-04-20T00:19:40.452Z,102140.00
2023-04-20T00:22:10.762Z,102133.09
2023-04-20T00:24:38.758Z,102119.34
2023-04-20T00:27:06.888Z,102117.66
2023-04-20T00:29:35.280Z,102115.09
2023-04-20T00:32:03.339Z,102099.41
2023-04-20T00:34:32.808Z,102101.97
2023-04-20T00:37:01.072Z,102096.94
2023-04-20T00:39:29.116Z,102082.94
2023-04-20T00:42:05.298Z,102083.09
2023-04-20T00:44:33.819Z,102083.75
2023-04-20T00:47:02.056Z,102078.66
2023-04-20T00:49:32.969Z,102072.66
2023-04-20T00:52:02.076Z,102069.25
2023-04-20T00:54:31.393Z,102060.50
2023-04-20T00:57:00.796Z,102059.63
2023-04-20T00:59:29.013Z,102061.44
2023-04-20T01:01:57.143Z,102053.69
2023-04-20T01:04:26.269Z,102050.16
2023-04-20T01:06:58.227Z,102046.66
2023-04-20T01:09:26.304Z,102045.00
2023-04-20T01:11:54.459Z,102034.53
2023-04-20T01:14:22.527Z,102038.13
2023-04-20T01:16:52.073Z,102048.34
2023-04-20T01:19:21.632Z,102039.50
2023-04-20T01:21:52.508Z,102031.69
2023-04-20T01:24:21.938Z,102033.44
2023-04-20T01:26:50.018Z,102021.19
2023-04-20T01:29:18.190Z,102012.25
2023-04-20T01:31:46.624Z,102000.78
2023-04-20T01:34:15.305Z,102002.63
2023-04-20T01:36:43.391Z,101996.41
2023-04-20T01:39:11.980Z,101998.09
2023-04-20T01:41:41.853Z,101998.09
2023-04-20T01:44:09.930Z,101993.78
2023-04-20T01:46:39.377Z,101993.03
2023-04-20T01:49:08.102Z,101991.19
2023-04-20T01:51:36.705Z,101981.00
2023-04-20T01:54:04.905Z,101978.47
2023-04-20T01:56:32.974Z,101981.25
2023-04-20T01:59:02.374Z,101979.22
2023-04-20T02:01:30.542Z,101971.63
2023-04-20T02:03:59.083Z,101968.44
2023-04-20T02:06:27.226Z,101967.56
2023-04-20T02:08:55.292Z,101965.97
2023-04-20T02:11:23.508Z,101960.81
2023-04-20T02:13:53.768Z,101958.94
2023-04-20T02:16:24.098Z,101952.91
2023-04-20T02:18:52.192Z,101947.75
2023-04-20T02:21:20.583Z,101946.13
2023-04-20T02:23:48.612Z,101946.97
2023-04-20T02:26:18.900Z,101938.88
2023-04-20T02:28:47.209Z,101931.22
2023-04-20T02:31:15.268Z,101924.09
2023-04-20T02:33:44.758Z,101933.69
2023-04-20T02:36:12.841Z,101924.88
2023-04-20T02:38:40.906Z,101930.88
2023-04-20T02:41:08.939Z,101925.69
2023-04-20T02:43:40.519Z,101935.16
2023-04-20T02:46:08.695Z,101919.53
2023-04-20T02:48:36.820Z,101927.31
2023-04-20T02:51:06.318Z,101916.66
2023-04-20T02:53:34.419Z,101916.56
2023-04-20T02:56:02.507Z,101908.72
2023-04-20T02:58:30.811Z,101912.25
2023-04-20T03:01:01.327Z,101909.50
2023-04-20T03:03:29.859Z,101906.03
2023-04-20T03:05:58.269Z,101908.34
2023-04-20T03:08:27.698Z,101898.78
2023-04-20T03:10:55.737Z,101897.00
2023-04-20T03:13:23.896Z,101889.16
2023-04-20T03:15:55.034Z,101897.00
2023-04-20T03:18:23.120Z,101889.03
2023-04-20T03:20:51.199Z,101884.75
2023-04-20T03:23:19.346Z,101887.25
2023-04-20T03:25:49.143Z,101882.81
2023-04-20T03:28:17.340Z,101870.75
2023-04-20T03:30:45.434Z,101871.41
2023-04-20T03:33:13.474Z,101871.41
2023-04-20T03:35:43.148Z,101874.97
2023-04-20T03:38:11.570Z,101874.84
2023-04-20T03:40:39.677Z,101878.38
2023-04-20T03:43:09.090Z,101874.13
2023-04-20T03:45:37.210Z,101866.34
2023-04-20T03:48:06.164Z,101864.53
2023-04-20T03:50:34.260Z,101864.59
2023-04-20T03:53:02.579Z,101862.91
2023-04-20T03:55:30.932Z,101857.66
2023-04-20T03:57:59.104Z,101858.41
2023-04-20T04:00:28.527Z,101855.91
2023-04-20T04:02:56.724Z,101855.84
2023-04-20T04:05:26.472Z,101853.28
2023-04-20T04:07:54.676Z,101849.66
2023-04-20T04:10:22.822Z,101841.06
2023-04-20T04:12:50.796Z,101829.75
2023-04-20T04:15:19.618Z,101828.00
2023-04-20T04:17:49.797Z,101831.47
2023-04-20T04:20:20.783Z,101827.94
2023-04-20T04:22:52.108Z,101825.25
2023-04-20T04:25:20.389Z,101819.09
2023-04-20T04:27:48.812Z,101814.69
2023-04-20T04:30:17.639Z,101807.66
2023-04-20T04:32:46.574Z,101806.03
2023-04-20T04:35:16.221Z,101812.19
2023-04-20T04:37:47.572Z,101809.56
2023-04-20T04:40:16.280Z,101809.47
2023-04-20T04:42:45.469Z,101810.28
2023-04-20T04:45:14.421Z,101820.81
2023-04-20T04:47:43.890Z,101811.91
2023-04-20T04:50:13.042Z,101819.75
2023-04-20T04:52:46.558Z,101817.19
2023-04-20T04:55:16.277Z,101826.63
2023-04-20T04:57:44.755Z,101814.38
2023-04-20T05:00:13.787Z,101820.41
2023-04-20T05:02:42.004Z,101815.75
2023-04-20T05:05:10.571Z,101821.00
2023-04-20T05:07:40.241Z,101818.50
2023-04-20T05:10:10.218Z,101810.50
2023-04-20T05:12:38.727Z,101812.13
2023-04-20T05:15:07.928Z,101812.19
2023-04-20T05:17:36.254Z,101811.09
2023-04-20T05:20:06.358Z,101807.72
2023-04-20T05:22:34.492Z,101800.78
2023-04-20T05:25:02.552Z,101806.81
2023-04-20T05:27:32.133Z,101811.84
2023-04-20T05:30:09.466Z,101806.66
2023-04-20T05:32:45.144Z,101811.03
2023-04-20T05:35:13.234Z,101819.69
2023-04-20T05:37:41.234Z,101814.38
2023-04-20T05:40:11.254Z,101802.19
2023-04-20T05:42:40.992Z,101797.47
2023-04-20T05:45:10.992Z,101797.53
2023-04-20T05:47:39.149Z,101789.53
2023-04-20T05:50:08.722Z,101798.25
2023-04-20T05:52:36.792Z,101800.84
2023-04-20T05:55:05.285Z,101788.38
2023-04-20T05:57:33.451Z,101796.28
2023-04-20T06:00:03.834Z,101795.97
2023-04-20T06:02:32.094Z,101798.47
2023-04-20T06:05:01.243Z,101793.88
2023-04-20T06:07:29.402Z,101794.75
2023-04-20T06:09:57.472Z,101800.81
2023-04-20T06:12:26.770Z,101799.97
2023-04-20T06:14:57.144Z,101797.41
2023-04-20T06:17:26.908Z,101798.03
2023-04-20T06:19:55.358Z,101798.00
2023-04-20T06:22:23.417Z,101796.22
2023-04-20T06:24:51.432Z,101794.22
2023-04-20T06:27:19.629Z,101794.16
2023-04-20T06:29:47.782Z,101791.03
2023-04-20T06:32:18.946Z,101789.84
2023-04-20T06:34:48.486Z,101786.06
2023-04-20T06:37:16.593Z,101797.31
2023-04-20T06:39:44.964Z,101805.09
2023-04-20T06:42:13.870Z,101817.31
2023-04-20T06:44:41.934Z,101799.94
2023-04-20T06:47:10.093Z,101792.06
2023-04-20T06:49:39.447Z,101792.09
2023-04-20T06:52:08.910Z,101789.13
2023-04-20T06:54:37.080Z,101791.19
2023-04-20T06:57:05.284Z,101790.91
2023-04-20T06:59:33.356Z,101798.97
2023-04-20T07:02:01.725Z,101791.44
2023-04-20T07:04:30.007Z,101800.47
2023-04-20T07:06:58.035Z,101799.88
2023-04-20T07:09:27.697Z,101794.50
2023-04-20T07:11:56.436Z,101795.66
2023-04-20T07:14:24.575Z,101790.59
2023-04-20T07:16:53.563Z,101805.44
2023-04-20T07:19:21.728Z,101794.06
2023-04-20T07:21:49.805Z,101795.84
2023-04-20T07:24:17.994Z,101793.78
2023-04-20T07:26:47.585Z,101797.47
2023-04-20T07:29:15.899Z,101795.66
2023-04-20T07:31:44.149Z,101799.03
2023-04-20T07:34:12.323Z,101794.38
2023-04-20T07:36:40.460Z,101804.47
2023-04-20T07:39:08.824Z,101780.66
2023-04-20T07:41:37.629Z,101787.91
2023-04-20T07:44:07.250Z,101779.84
2023-04-20T07:46:35.396Z,101775.91
2023-04-20T07:49:03.612Z,101779.75
2023-04-20T07:51:33.387Z,101769.97
2023-04-20T07:54:01.580Z,101776.25
2023-04-20T07:56:29.575Z,101776.81
2023-04-20T07:58:57.978Z,101773.78
2023-04-20T08:01:27.488Z,101777.00
2023-04-20T08:03:56.092Z,101770.38
2023-04-20T08:06:24.439Z,101769.25
2023-04-20T08:08:53.060Z,101778.38
2023-04-20T08:11:21.759Z,101778.25
2023-04-20T08:13:49.924Z,101781.78
2023-04-20T08:16:18.003Z,101779.44
2023-04-20T08:18:47.490Z,101767.31
2023-04-20T08:21:15.596Z,101769.06
2023-04-20T08:23:43.892Z,101770.44
2023-04-20T08:26:16.886Z,101761.91
2023-04-20T08:28:45.434Z,101760.13
2023-04-20T08:31:16.300Z,101757.94
2023-04-20T08:33:44.574Z,101762.59
2023-04-20T08:36:14.040Z,101759.25
2023-04-20T08:38:42.137Z,101756.06
2023-04-20T08:41:13.164Z,101750.88
2023-04-20T08:43:41.683Z,101756.53
2023-04-20T08:46:14.715Z,101751.16
2023-04-20T08:48:46.588Z,101742.94
2023-04-20T08:51:17.061Z,101751.81
2023-04-20T08:53:45.623Z,101756.84
2023-04-20T08:56:13.613Z,101758.34
2023-04-20T08:58:42.326Z,101760.06
2023-04-20T09:01:14.098Z,101751.88
2023-04-20T09:03:46.026Z,101755.31
2023-04-20T09:06:22.210Z,101758.19
2023-04-20T09:08:51.370Z,101760.00
2023-04-20T09:11:23.741Z,101760.47
2023-04-20T09:14:02.281Z,101750.06
2023-04-20T09:16:30.542Z,101757.06
2023-04-20T09:18:58.996Z,101755.22
2023-04-20T09:21:31.529Z,101763.31
2023-04-20T09:24:01.812Z,101761.53
2023-04-20T09:26:33.523Z,101762.13
2023-04-20T09:29:01.856Z,101755.78
2023-04-20T09:31:30.023Z,101757.31
2023-04-20T09:33:59.323Z,101757.47
2023-04-20T09:36:38.836Z,101765.19
2023-04-20T09:39:09.389Z,101755.75
2023-04-20T09:41:38.382Z,101757.34
2023-04-20T09:44:07.655Z,101754.44
2023-04-20T09:46:40.859Z,101747.81
2023-04-20T09:49:10.167Z,101748.59
2023-04-20T09:51:45.171Z,101741.88
2023-04-20T09:54:15.961Z,101746.72
2023-04-20T09:56:48.026Z,101742.81
2023-04-20T09:59:20.145Z,101736.13
2023-04-20T10:01:48.686Z,101741.03
2023-04-20T10:04:17.188Z,101744.66
2023-04-20T10:06:57.143Z,101735.03
2023-04-20T10:09:27.463Z,101727.44
2023-04-20T10:12:07.542Z,101725.25
2023-04-20T10:14:36.346Z,101731.38
2023-04-20T10:17:06.570Z,101724.66
2023-04-20T10:19:39.749Z,101729.59
2023-04-20T10:22:10.433Z,101718.03
2023-04-20T10:24:39.233Z,101724.84
2023-04-20T10:27:18.235Z,101727.16
2023-04-20T10:29:46.502Z,101711.41
2023-04-20T10:32:23.855Z,101704.31
2023-04-20T10:35:03.473Z,101701.72
2023-04-20T10:37:33.243Z,101701.59
2023-04-20T10:40:01.668Z,101699.63
2023-04-20T10:42:30.530Z,101694.75
2023-04-20T10:44:58.727Z,101698.47
2023-04-20T10:47:31.508Z,101696.13
2023-04-20T10:50:09.327Z,101690.53
2023-04-20T10:52:40.190Z,101684.88
2023-04-20T10:55:19.796Z,101680.09
2023-04-20T10:57:48.092Z,101682.31
2023-04-20T11:00:20.536Z,101680.53
2023-04-20T11:02:50.978Z,101677.56
2023-04-20T11:05:19.775Z,101683.00
2023-04-20T11:07:56.147Z,101676.88
2023-04-20T11:10:39.793Z,101672.78
2023-04-20T11:13:08.500Z,101675.72
2023-04-20T11:15:36.888Z,101678.78
2023-04-20T11:18:08.877Z,101679.94
2023-04-20T11:20:52.013Z,101677.25
2023-04-20T11:23:22.902Z,101674.09
2023-04-20T11:25:55.452Z,101671.63
2023-04-20T11:28:25.934Z,101670.28
2023-04-20T11:30:54.095Z,101662.72
2023-04-20T11:33:29.398Z,101658.47
2023-04-20T11:36:01.015Z,101652.81
2023-04-20T11:38:34.281Z,101652.47
2023-04-20T11:41:07.796Z,101652.81
2023-04-20T11:43:36.488Z,101647.03
2023-04-20T11:46:04.787Z,101645.00
2023-04-20T11:48:33.184Z,101644.84
2023-04-20T11:51:01.242Z,101649.41
2023-04-20T11:53:29.362Z,101653.25
2023-04-20T11:55:58.953Z,101639.81
2023-04-20T11:58:29.792Z,101649.88
2023-04-20T12:00:58.071Z,101647.69
2023-04-20T12:03:26.504Z,101647.53
2023-04-20T12:05:54.717Z,101646.81
2023-04-20T12:08:24.123Z,101644.06
2023-04-20T12:10:52.204Z,101639.38
2023-04-20T12:13:24.714Z,101633.09
2023-04-20T12:15:55.045Z,101633.97
2023-04-20T12:18:23.320Z,101638.69
2023-04-20T12:20:51.666Z,101648.91
2023-04-20T12:23:19.837Z,101638.56
2023-04-20T12:25:47.858Z,101631.53
2023-04-20T12:28:16.000Z,101627.28
2023-04-20T12:30:45.761Z,101636.63
2023-04-20T12:33:16.187Z,101638.47
2023-04-20T12:35:45.078Z,101634.00
2023-04-20T12:38:14.562Z,101634.75
2023-04-20T12:40:42.848Z,101633.03
2023-04-20T12:43:10.935Z,101638.41
2023-04-20T12:45:38.983Z,101637.47
2023-04-20T12:48:08.705Z,101625.53
2023-04-20T12:50:36.766Z,101621.75
2023-04-20T12:53:04.910Z,101626.31
2023-04-20T12:55:33.146Z,101623.59
2023-04-20T12:58:01.152Z,101626.31
2023-04-20T13:00:29.372Z,101632.16
2023-04-20T13:02:57.551Z,101627.94
2023-04-20T13:05:27.123Z,101625.41
2023-04-20T13:07:55.200Z,101619.28
2023-04-20T13:10:23.714Z,101621.47
2023-04-20T13:12:52.598Z,101623.00
2023-04-20T13:15:32.059Z,101614.25
2023-04-20T13:18:06.268Z,101620.81
2023-04-20T13:20:35.875Z,101607.75
2023-04-20T13:23:04.746Z,101618.44
2023-04-20T13:25:34.126Z,101626.13
2023-04-20T13:28:05.127Z,101619.19
2023-04-20T13:30:33.689Z,101623.28
2023-04-20T13:33:01.828Z,101630.91
2023-04-20T13:35:30.117Z,101624.66
2023-04-20T13:37:59.578Z,101628.03
2023-04-20T13:40:27.665Z,101626.09
2023-04-20T13:42:55.764Z,101622.25
2023-04-20T13:45:24.240Z,101616.72
2023-04-20T13:47:52.459Z,101615.03
2023-04-20T13:50:20.461Z,101607.06
2023-04-20T13:52:51.631Z,101603.53
2023-04-20T13:55:21.408Z,101606.28
2023-04-20T13:57:49.442Z,101592.13
2023-04-20T14:00:17.944Z,101586.19
2023-04-20T14:02:46.141Z,101585.38
2023-04-20T14:05:14.213Z,101591.81
2023-04-20T14:07:42.363Z,101590.19
2023-04-20T14:10:10.993Z,101591.88
2023-04-20T14:12:40.556Z,101591.31
2023-04-20T14:15:09.542Z,101580.31
2023-04-20T14:17:40.417Z,101583.09
2023-04-20T14:20:10.002Z,101578.72
2023-04-20T14:22:38.048Z,101578.38
2023-04-20T14:25:06.686Z,101576.84
2023-04-20T14:27:34.680Z,101568.56
2023-04-20T14:30:04.651Z,101579.59
2023-04-20T14:32:32.850Z,101573.22
2023-04-20T14:35:05.589Z,101577.84
2023-04-20T14:37:34.128Z,101570.97
2023-04-20T14:40:02.219Z,101572.28
2023-04-20T14:42:30.601Z,101578.31
2023-04-20T14:44:58.671Z,101566.84
2023-04-20T14:47:28.191Z,101572.19
2023-04-20T14:49:56.460Z,101566.94
2023-04-20T14:52:24.461Z,101565.31
2023-04-20T14:54:52.613Z,101566.16
2023-04-20T14:57:20.658Z,101567.25
2023-04-20T14:59:48.877Z,101574.78
2023-04-20T15:02:18.350Z,101560.56
2023-04-20T15:04:48.681Z,101562.72
2023-04-20T15:08:27.138Z,101571.13
2023-04-20T15:10:57.065Z,101556.72
2023-04-20T15:13:28.117Z,101553.72
2023-04-20T15:15:56.141Z,101553.78
2023-04-20T15:18:24.169Z,101542.88
2023-04-20T15:20:56.698Z,101541.69
2023-04-20T15:23:24.790Z,101543.25
2023-04-20T15:25:53.602Z,101542.44
2023-04-20T15:28:24.700Z,101548.72
2023-04-20T15:30:52.719Z,101548.03
2023-04-20T15:33:20.927Z,101547.16
2023-04-20T15:35:50.367Z,101542.88
2023-04-20T15:38:19.776Z,101538.50
2023-04-20T15:40:47.852Z,101537.75
2023-04-20T15:43:15.879Z,101541.69
2023-04-20T15:45:44.982Z,101541.69
2023-04-20T15:48:13.134Z,101537.16
2023-04-20T15:50:41.191Z,101524.88
2023-04-20T15:53:09.260Z,101536.25
2023-04-20T15:55:41.104Z,101532.28
2023-04-20T15:58:09.191Z,101528.44
2023-04-20T16:00:37.618Z,101528.16
2023-04-20T16:03:08.609Z,101523.59
2023-04-20T16:05:36.966Z,101531.38
2023-04-20T16:08:05.476Z,101549.16
2023-04-20T16:10:33.481Z,101545.34
2023-04-20T16:13:03.654Z,101543.84
2023-04-20T16:15:32.035Z,101534.41
2023-04-20T16:18:00.346Z,101538.38
2023-04-20T16:20:28.420Z,101538.28
2023-04-20T16:22:56.873Z,101537.72
2023-04-20T16:25:25.664Z,101530.91
2023-04-20T16:27:53.723Z,101525.72
2023-04-20T16:30:23.363Z,101521.75
2023-04-20T16:32:51.428Z,101520.34
2023-04-20T16:35:19.513Z,101513.31
2023-04-20T16:37:47.907Z,101518.28
2023-04-20T16:40:16.014Z,101517.81
2023-04-20T16:42:44.200Z,101521.59
2023-04-20T16:45:12.376Z,101520.56
2023-04-20T16:47:41.869Z,101525.97
2023-04-20T16:50:11.819Z,101521.97
2023-04-20T16:52:39.828Z,101524.16
2023-04-20T16:55:09.000Z,101525.56
2023-04-20T16:57:36.991Z,101520.84
2023-04-20T17:00:06.691Z,101521.91
2023-04-20T17:02:36.140Z,101541.09
2023-04-20T17:05:06.790Z,101517.00
2023-04-20T17:07:36.375Z,101527.09
2023-04-20T17:10:06.771Z,101529.44
2023-04-20T17:12:34.924Z,101518.50
2023-04-20T17:15:03.010Z,101518.31
2023-04-20T17:17:31.419Z,101526.72
2023-04-20T17:19:59.515Z,101530.63
2023-04-20T17:22:29.030Z,101528.28
2023-04-20T17:24:57.059Z,101529.81
2023-04-20T17:27:25.265Z,101538.31
2023-04-20T17:29:53.330Z,101538.94
2023-04-20T17:32:21.483Z,101538.75
2023-04-20T17:34:51.470Z,101547.03
2023-04-20T17:37:20.260Z,101542.59
2023-04-20T17:39:49.889Z,101549.69
2023-04-20T17:42:18.733Z,101550.56
2023-04-20T17:44:46.762Z,101554.31
2023-04-20T17:47:15.303Z,101550.63
2023-04-20T17:49:43.864Z,101546.38
2023-04-20T17:52:15.270Z,101548.50
2023-04-20T17:54:43.652Z,101547.59
2023-04-20T17:57:14.117Z,101550.50
2023-04-20T17:59:42.879Z,101549.47
2023-04-20T18:02:11.868Z,101552.75
2023-04-20T18:04:43.339Z,101554.31
2023-04-20T18:07:13.194Z,101539.88
2023-04-20T18:09:41.371Z,101540.13
2023-04-20T18:12:10.779Z,101543.56
2023-04-20T18:14:41.241Z,101551.91
2023-04-20T18:17:12.667Z,101551.84
2023-04-20T18:19:41.329Z,101559.16
2023-04-20T18:22:09.722Z,101549.41
2023-04-20T18:24:38.107Z,101561.47
2023-04-20T18:27:06.178Z,101556.28
2023-04-20T18:29:34.689Z,101567.56
2023-04-20T18:32:04.288Z,101573.19
2023-04-20T18:34:32.521Z,101568.94
2023-04-20T18:37:00.668Z,101576.47
2023-04-20T18:39:30.056Z,101578.41
2023-04-20T18:41:58.250Z,101578.16
2023-04-20T18:44:28.365Z,101586.66
2023-04-20T18:46:56.619Z,101599.19
2023-04-20T18:49:26.235Z,101596.44
2023-04-20T18:51:54.494Z,101596.44
2023-04-20T18:54:22.494Z,101601.88
2023-04-20T18:56:50.657Z,101604.75
2023-04-20T18:59:18.797Z,101609.44
2023-04-20T19:01:46.864Z,101608.38
2023-04-20T19:04:14.993Z,101605.91
2023-04-20T19:06:44.615Z,101615.00
2023-04-20T19:09:12.741Z,101626.22
2023-04-20T19:11:40.851Z,101615.97
2023-04-20T19:14:09.022Z,101622.38
2023-04-20T19:16:37.112Z,101613.88
2023-04-20T19:19:05.732Z,101623.66
2023-04-20T19:21:34.066Z,101620.94
2023-04-20T19:24:03.557Z,101610.41
2023-04-20T19:26:31.734Z,101612.75
2023-04-20T19:29:00.517Z,101612.00
2023-04-20T19:31:34.060Z,101616.22
2023-04-20T19:34:02.285Z,101611.28
2023-04-20T19:36:30.489Z,101606.03
2023-04-20T19:38:58.624Z,101600.22
2023-04-20T19:41:28.254Z,101606.31
2023-04-20T19:43:56.445Z,101604.59
2023-04-20T19:46:24.501Z,101603.69
2023-04-20T19:48:52.574Z,101609.28
2023-04-20T19:51:22.319Z,101602.75
2023-04-20T19:53:50.444Z,101598.38
2023-04-20T19:56:21.586Z,101597.59
2023-04-20T19:58:51.036Z,101594.41
2023-04-20T20:01:19.435Z,101597.41
2023-04-20T20:03:47.948Z,101590.44
2023-04-20T20:06:16.432Z,101594.56
2023-04-20T20:08:44.526Z,101593.06
2023-04-20T20:11:15.004Z,101588.91
2023-04-20T20:13:43.090Z,101585.47
2023-04-20T20:16:12.624Z,101584.72
2023-04-20T20:18:40.874Z,101585.94
2023-04-20T20:21:08.979Z,101580.59
2023-04-20T20:23:37.167Z,101583.50
2023-04-20T20:26:05.351Z,101567.03
2023-04-20T20:28:33.403Z,101573.34
2023-04-20T20:31:01.577Z,101569.81
2023-04-20T20:33:31.186Z,101564.72
2023-04-20T20:36:01.477Z,101575.34
2023-04-20T20:38:31.002Z,101569.72
2023-04-20T20:40:59.699Z,101568.53
2023-04-20T20:43:28.525Z,101566.84
2023-04-20T20:45:56.610Z,101567.97
2023-04-20T20:48:24.778Z,101564.44
2023-04-20T20:50:54.176Z,101559.81
2023-04-20T20:53:22.319Z,101558.56
2023-04-20T20:55:50.546Z,101548.63
2023-04-20T20:58:18.791Z,101547.56
2023-04-20T21:00:47.562Z,101547.91
2023-04-20T21:03:15.953Z,101540.84
2023-04-20T21:05:44.314Z,101531.38
2023-04-20T21:08:13.964Z,101530.03
2023-04-20T21:10:42.035Z,101537.06
2023-04-20T21:13:10.057Z,101542.09
2023-04-20T21:15:38.132Z,101532.59
2023-04-20T21:18:06.323Z,101536.22
2023-04-20T21:20:35.392Z,101544.16
2023-04-20T21:23:03.461Z,101535.47
2023-04-20T21:25:32.971Z,101535.41
2023-04-20T21:28:01.019Z,101534.38
2023-04-20T21:30:29.420Z,101524.66
2023-04-20T21:32:57.495Z,101529.06
2023-04-20T21:35:25.836Z,101537.81
2023-04-20T21:37:53.914Z,101541.38
2023-04-20T21:40:22.762Z,101547.63
2023-04-20T21:42:52.262Z,101532.19
2023-04-20T21:45:20.277Z,101541.84
2023-04-20T21:47:48.411Z,101543.53
2023-04-20T21:50:16.649Z,101550.69
2023-04-20T21:52:44.707Z,101555.94
2023-04-20T21:55:13.188Z,101557.34
2023-04-20T21:57:41.214Z,101545.38
2023-04-20T22:00:15.534Z,101550.53
2023-04-20T22:02:43.888Z,101553.94
2023-04-20T22:05:12.164Z,101562.81
2023-04-20T22:07:40.526Z,101550.94
2023-04-20T22:10:09.688Z,101544.13
2023-04-20T22:12:40.474Z,101545.06
2023-04-20T22:15:14.808Z,101552.31
2023-04-20T22:17:45.419Z,101553.19
2023-04-20T22:20:16.217Z,101561.06
2023-04-20T22:22:44.314Z,101558.53
2023-04-20T22:25:12.470Z,101548.47
2023-04-20T22:27:40.832Z,101545.91
2023-04-20T22:30:09.852Z,101535.44
2023-04-20T22:32:39.465Z,101532.34
2023-04-20T22:35:08.330Z,101531.66
2023-04-20T22:37:36.595Z,101530.84
2023-04-20T22:40:07.599Z,101529.75
2023-04-20T22:42:36.106Z,101521.72
2023-04-20T22:45:04.891Z,101511.63
2023-04-20T22:47:33.087Z,101507.28
2023-04-20T22:50:03.378Z,101501.28
2023-04-20T22:52:32.088Z,101504.69
2023-04-20T22:55:01.054Z,101494.47
2023-04-20T22:57:29.122Z,101485.81
2023-04-20T22:59:57.239Z,101480.72
2023-04-20T23:02:25.544Z,101465.78
2023-04-20T23:04:56.888Z,101455.56
2023-04-20T23:07:26.348Z,101465.78
2023-04-20T23:09:56.524Z,101457.13
2023-04-20T23:12:26.259Z,101457.22
2023-04-20T23:14:54.920Z,101462.50
2023-04-20T23:17:23.532Z,101467.63
2023-04-20T23:19:52.645Z,101471.78
2023-04-20T23:22:23.296Z,101458.03
2023-04-20T23:24:52.876Z,101462.63
2023-04-20T23:27:20.954Z,101468.91
2023-04-20T23:29:48.998Z,101462.97
2023-04-20T23:32:17.023Z,101462.19
2023-04-20T23:34:45.942Z,101455.91
2023-04-20T23:37:13.967Z,101461.41
2023-04-20T23:39:41.971Z,101447.47
2023-04-20T23:42:11.431Z,101429.56
2023-04-20T23:44:39.445Z,101432.88
2023-04-20T23:47:07.465Z,101433.16
2023-04-20T23:49:35.623Z,101439.50
2023-04-20T23:52:03.711Z,101452.59
2023-04-20T23:54:33.243Z,101439.50
2023-04-20T23:57:02.752Z,101443.88
2023-04-20T23:59:32.283Z,101429.06
